Accueil
METAR-TAF:

METAR-TAF

Aéroports :

Thoothukudi, Inde

latitude: 8-43-27N, longitude: 78-01-33E, altitude: 39 m

Observation

Le bulletin a été fait il y a 47 minutes, à 03:00 UTC
Vent 3 kt de ouest
Température 29°C
Humidité 70%
Pression 1006 hPa
Visibilité: 6000 m
Quelques nuages à une hauteur de 1800 ft
Nuages épars à une hauteur de 10000 ft

METAR: VOTK 220300Z 26003KT 6000 FEW018 SCT100 29/23 Q1006 NOSIG

Heure: 09:17 (03:47 UTC)


TAF: absent

Observations et prévisions météorologiques de plus de 4000 aéroports (messages METAR et TAF).

Les stations disponibles sont représentées par des disques jaunes et rouges sur la carte.

Passer la souris dessus pour voir le nom de la station.

Cliquer dessus pour voir les observations et prévisions météorologiques.

Pour changer de carte: cliquez sur les boutons verts avec une croix noire pour zoomer, sur le bouton vert avec un tiret pour effectuer un zoom arrière, ou sur les flèches vertes pour les cartes adjacentes.


METAR-TAF: